sensor_id;sensor_type;location;lat;lon;timestamp;P1;durP1;ratioP1;P2;durP2;ratioP2
28551;SDS011;15752;49.560;8.708;2023-03-03T00:00:43;30.13;;;19.33;;
28551;SDS011;15752;49.560;8.708;2023-03-03T00:03:13;30.00;;;18.97;;
28551;SDS011;15752;49.560;8.708;2023-03-03T00:05:44;31.03;;;20.67;;
28551;SDS011;15752;49.560;8.708;2023-03-03T00:08:14;32.63;;;18.57;;
28551;SDS011;15752;49.560;8.708;2023-03-03T00:10:42;32.97;;;19.67;;
28551;SDS011;15752;49.560;8.708;2023-03-03T00:13:12;33.77;;;19.47;;
28551;SDS011;15752;49.560;8.708;2023-03-03T00:15:43;31.23;;;18.93;;
28551;SDS011;15752;49.560;8.708;2023-03-03T00:18:16;31.57;;;19.70;;
28551;SDS011;15752;49.560;8.708;2023-03-03T00:20:52;28.20;;;16.83;;
28551;SDS011;15752;49.560;8.708;2023-03-03T00:23:27;28.17;;;17.33;;
28551;SDS011;15752;49.560;8.708;2023-03-03T00:25:58;28.50;;;18.23;;
28551;SDS011;15752;49.560;8.708;2023-03-03T00:28:27;27.43;;;17.10;;
28551;SDS011;15752;49.560;8.708;2023-03-03T00:30:59;29.13;;;17.77;;
28551;SDS011;15752;49.560;8.708;2023-03-03T00:33:30;24.50;;;16.83;;
28551;SDS011;15752;49.560;8.708;2023-03-03T00:36:20;22.90;;;15.67;;
28551;SDS011;15752;49.560;8.708;2023-03-03T00:39:09;24.70;;;16.60;;
28551;SDS011;15752;49.560;8.708;2023-03-03T00:41:45;24.70;;;15.17;;
28551;SDS011;15752;49.560;8.708;2023-03-03T00:47:23;23.77;;;15.87;;
28551;SDS011;15752;49.560;8.708;2023-03-03T00:52:58;22.03;;;14.10;;
28551;SDS011;15752;49.560;8.708;2023-03-03T00:55:39;22.63;;;15.30;;
28551;SDS011;15752;49.560;8.708;2023-03-03T00:58:08;21.83;;;13.60;;
28551;SDS011;15752;49.560;8.708;2023-03-03T01:00:41;24.17;;;16.27;;
28551;SDS011;15752;49.560;8.708;2023-03-03T01:03:12;21.70;;;14.77;;
28551;SDS011;15752;49.560;8.708;2023-03-03T01:05:43;21.17;;;14.63;;
28551;SDS011;15752;49.560;8.708;2023-03-03T01:08:12;23.37;;;15.03;;
28551;SDS011;15752;49.560;8.708;2023-03-03T01:10:44;21.50;;;15.83;;
28551;SDS011;15752;49.560;8.708;2023-03-03T01:13:16;24.70;;;15.00;;
28551;SDS011;15752;49.560;8.708;2023-03-03T01:15:45;24.40;;;14.73;;
28551;SDS011;15752;49.560;8.708;2023-03-03T01:18:14;20.47;;;15.23;;
28551;SDS011;15752;49.560;8.708;2023-03-03T01:20:42;19.07;;;13.57;;
28551;SDS011;15752;49.560;8.708;2023-03-03T01:23:10;20.33;;;14.90;;
28551;SDS011;15752;49.560;8.708;2023-03-03T01:25:39;21.63;;;14.13;;
28551;SDS011;15752;49.560;8.708;2023-03-03T01:28:09;22.87;;;14.23;;
28551;SDS011;15752;49.560;8.708;2023-03-03T01:30:38;23.33;;;14.17;;
28551;SDS011;15752;49.560;8.708;2023-03-03T01:33:06;18.77;;;12.80;;
28551;SDS011;15752;49.560;8.708;2023-03-03T01:35:35;21.93;;;14.57;;
28551;SDS011;15752;49.560;8.708;2023-03-03T01:38:06;20.00;;;14.10;;
28551;SDS011;15752;49.560;8.708;2023-03-03T01:40:34;22.90;;;14.43;;
28551;SDS011;15752;49.560;8.708;2023-03-03T01:43:05;20.90;;;14.00;;
28551;SDS011;15752;49.560;8.708;2023-03-03T01:45:40;20.27;;;13.33;;
28551;SDS011;15752;49.560;8.708;2023-03-03T01:48:50;22.20;;;13.73;;
28551;SDS011;15752;49.560;8.708;2023-03-03T01:51:25;20.73;;;13.77;;
28551;SDS011;15752;49.560;8.708;2023-03-03T01:53:56;16.87;;;12.20;;
28551;SDS011;15752;49.560;8.708;2023-03-03T01:56:28;20.80;;;14.53;;
28551;SDS011;15752;49.560;8.708;2023-03-03T01:58:59;19.87;;;13.07;;
28551;SDS011;15752;49.560;8.708;2023-03-03T02:01:33;22.13;;;13.20;;
28551;SDS011;15752;49.560;8.708;2023-03-03T02:04:01;18.20;;;13.10;;
28551;SDS011;15752;49.560;8.708;2023-03-03T02:06:32;21.17;;;13.40;;
28551;SDS011;15752;49.560;8.708;2023-03-03T02:09:06;19.83;;;12.83;;
28551;SDS011;15752;49.560;8.708;2023-03-03T02:11:39;22.77;;;13.40;;
28551;SDS011;15752;49.560;8.708;2023-03-03T02:14:12;20.33;;;13.43;;
28551;SDS011;15752;49.560;8.708;2023-03-03T02:16:41;20.63;;;12.93;;
28551;SDS011;15752;49.560;8.708;2023-03-03T02:19:12;19.73;;;12.90;;
28551;SDS011;15752;49.560;8.708;2023-03-03T02:21:48;18.23;;;12.73;;
28551;SDS011;15752;49.560;8.708;2023-03-03T02:24:18;22.17;;;13.30;;
28551;SDS011;15752;49.560;8.708;2023-03-03T02:26:54;18.10;;;12.77;;
28551;SDS011;15752;49.560;8.708;2023-03-03T02:29:23;17.93;;;12.83;;
28551;SDS011;15752;49.560;8.708;2023-03-03T02:31:51;19.60;;;12.13;;
28551;SDS011;15752;49.560;8.708;2023-03-03T02:34:20;17.37;;;12.07;;
28551;SDS011;15752;49.560;8.708;2023-03-03T02:36:50;17.50;;;12.10;;
28551;SDS011;15752;49.560;8.708;2023-03-03T02:39:19;18.77;;;12.40;;
28551;SDS011;15752;49.560;8.708;2023-03-03T02:41:51;18.57;;;12.50;;
28551;SDS011;15752;49.560;8.708;2023-03-03T02:44:32;21.03;;;13.10;;
28551;SDS011;15752;49.560;8.708;2023-03-03T02:47:02;18.87;;;12.13;;
28551;SDS011;15752;49.560;8.708;2023-03-03T02:49:31;19.30;;;11.70;;
28551;SDS011;15752;49.560;8.708;2023-03-03T02:52:03;19.80;;;12.13;;
28551;SDS011;15752;49.560;8.708;2023-03-03T02:54:36;17.07;;;11.10;;
28551;SDS011;15752;49.560;8.708;2023-03-03T02:57:07;18.80;;;11.83;;
28551;SDS011;15752;49.560;8.708;2023-03-03T02:59:35;16.50;;;10.90;;
28551;SDS011;15752;49.560;8.708;2023-03-03T03:02:08;19.23;;;12.23;;
28551;SDS011;15752;49.560;8.708;2023-03-03T03:04:37;16.40;;;11.50;;
28551;SDS011;15752;49.560;8.708;2023-03-03T03:07:06;17.60;;;11.30;;
28551;SDS011;15752;49.560;8.708;2023-03-03T03:09:36;15.47;;;10.97;;
28551;SDS011;15752;49.560;8.708;2023-03-03T03:12:04;17.33;;;11.47;;
28551;SDS011;15752;49.560;8.708;2023-03-03T03:14:35;17.47;;;10.80;;
28551;SDS011;15752;49.560;8.708;2023-03-03T03:17:05;17.90;;;11.43;;
28551;SDS011;15752;49.560;8.708;2023-03-03T03:19:33;18.23;;;11.47;;
28551;SDS011;15752;49.560;8.708;2023-03-03T03:22:01;15.63;;;10.73;;
28551;SDS011;15752;49.560;8.708;2023-03-03T03:24:33;17.40;;;11.70;;
28551;SDS011;15752;49.560;8.708;2023-03-03T03:27:05;15.83;;;11.03;;
28551;SDS011;15752;49.560;8.708;2023-03-03T03:29:35;18.17;;;10.77;;
28551;SDS011;15752;49.560;8.708;2023-03-03T03:32:04;16.70;;;10.57;;
28551;SDS011;15752;49.560;8.708;2023-03-03T03:34:33;20.73;;;11.63;;
28551;SDS011;15752;49.560;8.708;2023-03-03T03:37:02;18.53;;;12.23;;
28551;SDS011;15752;49.560;8.708;2023-03-03T03:39:32;17.10;;;11.40;;
28551;SDS011;15752;49.560;8.708;2023-03-03T03:42:00;19.20;;;11.43;;
28551;SDS011;15752;49.560;8.708;2023-03-03T03:44:30;16.80;;;11.37;;
28551;SDS011;15752;49.560;8.708;2023-03-03T03:47:00;16.03;;;10.43;;
28551;SDS011;15752;49.560;8.708;2023-03-03T03:49:29;16.43;;;10.50;;
28551;SDS011;15752;49.560;8.708;2023-03-03T03:51:58;15.33;;;10.43;;
28551;SDS011;15752;49.560;8.708;2023-03-03T03:54:30;17.47;;;11.27;;
28551;SDS011;15752;49.560;8.708;2023-03-03T03:56:58;15.03;;;10.87;;
28551;SDS011;15752;49.560;8.708;2023-03-03T03:59:27;17.77;;;10.60;;
28551;SDS011;15752;49.560;8.708;2023-03-03T04:01:57;15.80;;;9.63;;
28551;SDS011;15752;49.560;8.708;2023-03-03T04:04:26;16.53;;;10.97;;
28551;SDS011;15752;49.560;8.708;2023-03-03T04:06:54;16.83;;;10.93;;
28551;SDS011;15752;49.560;8.708;2023-03-03T04:09:22;17.97;;;11.00;;
28551;SDS011;15752;49.560;8.708;2023-03-03T04:11:51;18.00;;;11.17;;
28551;SDS011;15752;49.560;8.708;2023-03-03T04:14:21;15.80;;;11.23;;
28551;SDS011;15752;49.560;8.708;2023-03-03T04:16:50;17.63;;;10.83;;
28551;SDS011;15752;49.560;8.708;2023-03-03T04:19:20;16.57;;;10.97;;
28551;SDS011;15752;49.560;8.708;2023-03-03T04:21:50;17.27;;;10.67;;
28551;SDS011;15752;49.560;8.708;2023-03-03T04:24:19;18.27;;;11.03;;
28551;SDS011;15752;49.560;8.708;2023-03-03T04:26:49;16.10;;;10.80;;
28551;SDS011;15752;49.560;8.708;2023-03-03T04:29:18;14.33;;;10.10;;
28551;SDS011;15752;49.560;8.708;2023-03-03T04:31:47;15.17;;;10.17;;
28551;SDS011;15752;49.560;8.708;2023-03-03T04:34:16;12.70;;;9.07;;
28551;SDS011;15752;49.560;8.708;2023-03-03T04:36:46;16.37;;;11.20;;
28551;SDS011;15752;49.560;8.708;2023-03-03T04:39:15;17.73;;;10.27;;
28551;SDS011;15752;49.560;8.708;2023-03-03T04:41:43;15.47;;;9.77;;
28551;SDS011;15752;49.560;8.708;2023-03-03T04:44:12;16.07;;;10.27;;
28551;SDS011;15752;49.560;8.708;2023-03-03T04:46:40;14.53;;;10.07;;
28551;SDS011;15752;49.560;8.708;2023-03-03T04:49:08;15.03;;;10.10;;
28551;SDS011;15752;49.560;8.708;2023-03-03T04:51:39;17.17;;;10.13;;
28551;SDS011;15752;49.560;8.708;2023-03-03T04:54:09;15.60;;;10.43;;
28551;SDS011;15752;49.560;8.708;2023-03-03T04:56:38;15.87;;;10.10;;
28551;SDS011;15752;49.560;8.708;2023-03-03T04:59:06;14.10;;;9.57;;
28551;SDS011;15752;49.560;8.708;2023-03-03T05:01:36;17.93;;;10.73;;
28551;SDS011;15752;49.560;8.708;2023-03-03T05:04:04;16.23;;;10.43;;
28551;SDS011;15752;49.560;8.708;2023-03-03T05:06:33;14.67;;;9.63;;
28551;SDS011;15752;49.560;8.708;2023-03-03T05:09:02;17.00;;;11.13;;
28551;SDS011;15752;49.560;8.708;2023-03-03T05:11:32;17.80;;;11.30;;
28551;SDS011;15752;49.560;8.708;2023-03-03T05:14:00;16.53;;;10.67;;
28551;SDS011;15752;49.560;8.708;2023-03-03T05:16:29;17.63;;;10.50;;
28551;SDS011;15752;49.560;8.708;2023-03-03T05:18:57;15.33;;;10.37;;
28551;SDS011;15752;49.560;8.708;2023-03-03T05:21:26;17.20;;;11.00;;
28551;SDS011;15752;49.560;8.708;2023-03-03T05:23:54;18.13;;;10.30;;
28551;SDS011;15752;49.560;8.708;2023-03-03T05:26:22;18.83;;;11.40;;
28551;SDS011;15752;49.560;8.708;2023-03-03T05:28:52;15.73;;;10.27;;
28551;SDS011;15752;49.560;8.708;2023-03-03T05:31:21;16.93;;;11.30;;
28551;SDS011;15752;49.560;8.708;2023-03-03T05:33:51;15.20;;;10.27;;
28551;SDS011;15752;49.560;8.708;2023-03-03T05:36:20;15.43;;;10.70;;
28551;SDS011;15752;49.560;8.708;2023-03-03T05:38:49;18.13;;;11.27;;
28551;SDS011;15752;49.560;8.708;2023-03-03T05:41:17;19.07;;;11.17;;
28551;SDS011;15752;49.560;8.708;2023-03-03T05:43:46;15.03;;;9.93;;
28551;SDS011;15752;49.560;8.708;2023-03-03T05:46:16;16.00;;;10.07;;
28551;SDS011;15752;49.560;8.708;2023-03-03T05:48:44;18.67;;;9.43;;
28551;SDS011;15752;49.560;8.708;2023-03-03T05:51:12;15.37;;;10.43;;
28551;SDS011;15752;49.560;8.708;2023-03-03T05:53:41;18.50;;;12.93;;
28551;SDS011;15752;49.560;8.708;2023-03-03T05:56:09;20.73;;;12.73;;
28551;SDS011;15752;49.560;8.708;2023-03-03T05:58:37;21.03;;;13.37;;
28551;SDS011;15752;49.560;8.708;2023-03-03T06:01:06;22.93;;;13.57;;
28551;SDS011;15752;49.560;8.708;2023-03-03T06:03:36;18.97;;;13.03;;
28551;SDS011;15752;49.560;8.708;2023-03-03T06:06:04;18.67;;;12.83;;
28551;SDS011;15752;49.560;8.708;2023-03-03T06:08:34;18.67;;;12.83;;
28551;SDS011;15752;49.560;8.708;2023-03-03T06:11:02;21.50;;;14.63;;
28551;SDS011;15752;49.560;8.708;2023-03-03T06:13:32;19.07;;;13.13;;
28551;SDS011;15752;49.560;8.708;2023-03-03T06:16:00;23.30;;;13.40;;
28551;SDS011;15752;49.560;8.708;2023-03-03T06:18:29;20.40;;;13.53;;
28551;SDS011;15752;49.560;8.708;2023-03-03T06:20:58;21.40;;;14.37;;
28551;SDS011;15752;49.560;8.708;2023-03-03T06:23:27;22.33;;;15.23;;
28551;SDS011;15752;49.560;8.708;2023-03-03T06:25:55;24.40;;;16.53;;
28551;SDS011;15752;49.560;8.708;2023-03-03T06:28:23;23.80;;;15.57;;
28551;SDS011;15752;49.560;8.708;2023-03-03T06:30:52;22.60;;;14.60;;
28551;SDS011;15752;49.560;8.708;2023-03-03T06:33:21;22.50;;;14.83;;
28551;SDS011;15752;49.560;8.708;2023-03-03T06:35:49;24.67;;;16.10;;
28551;SDS011;15752;49.560;8.708;2023-03-03T06:38:19;21.63;;;14.53;;
28551;SDS011;15752;49.560;8.708;2023-03-03T06:40:48;24.27;;;14.80;;
28551;SDS011;15752;49.560;8.708;2023-03-03T06:43:16;19.83;;;11.93;;
28551;SDS011;15752;49.560;8.708;2023-03-03T06:45:45;17.17;;;12.10;;
28551;SDS011;15752;49.560;8.708;2023-03-03T06:48:14;17.27;;;11.57;;
28551;SDS011;15752;49.560;8.708;2023-03-03T06:50:42;21.57;;;12.40;;
28551;SDS011;15752;49.560;8.708;2023-03-03T06:53:12;19.87;;;12.53;;
28551;SDS011;15752;49.560;8.708;2023-03-03T06:55:43;19.17;;;12.80;;
28551;SDS011;15752;49.560;8.708;2023-03-03T06:58:13;20.23;;;12.77;;
28551;SDS011;15752;49.560;8.708;2023-03-03T07:00:43;18.50;;;11.67;;
28551;SDS011;15752;49.560;8.708;2023-03-03T07:03:22;18.70;;;13.17;;
28551;SDS011;15752;49.560;8.708;2023-03-03T07:05:52;19.23;;;12.97;;
28551;SDS011;15752;49.560;8.708;2023-03-03T07:08:21;21.43;;;12.33;;
28551;SDS011;15752;49.560;8.708;2023-03-03T07:10:52;17.47;;;11.33;;
28551;SDS011;15752;49.560;8.708;2023-03-03T07:13:21;18.27;;;12.80;;
28551;SDS011;15752;49.560;8.708;2023-03-03T07:15:52;20.77;;;12.63;;
28551;SDS011;15752;49.560;8.708;2023-03-03T07:18:33;17.17;;;11.90;;
28551;SDS011;15752;49.560;8.708;2023-03-03T07:21:12;18.93;;;12.10;;
28551;SDS011;15752;49.560;8.708;2023-03-03T07:23:44;21.77;;;14.37;;
28551;SDS011;15752;49.560;8.708;2023-03-03T07:26:17;21.90;;;13.03;;
28551;SDS011;15752;49.560;8.708;2023-03-03T07:28:52;24.60;;;14.07;;
28551;SDS011;15752;49.560;8.708;2023-03-03T07:31:26;20.97;;;13.40;;
28551;SDS011;15752;49.560;8.708;2023-03-03T07:34:00;19.77;;;13.53;;
28551;SDS011;15752;49.560;8.708;2023-03-03T07:36:33;21.13;;;13.43;;
28551;SDS011;15752;49.560;8.708;2023-03-03T07:39:12;19.03;;;12.17;;
28551;SDS011;15752;49.560;8.708;2023-03-03T07:41:52;20.07;;;12.90;;
28551;SDS011;15752;49.560;8.708;2023-03-03T07:44:30;19.33;;;13.03;;
28551;SDS011;15752;49.560;8.708;2023-03-03T07:47:11;20.57;;;12.97;;
28551;SDS011;15752;49.560;8.708;2023-03-03T07:49:47;23.03;;;12.87;;
28551;SDS011;15752;49.560;8.708;2023-03-03T07:52:18;23.73;;;13.63;;
28551;SDS011;15752;49.560;8.708;2023-03-03T07:54:55;21.87;;;13.23;;
28551;SDS011;15752;49.560;8.708;2023-03-03T07:57:28;21.90;;;11.23;;
28551;SDS011;15752;49.560;8.708;2023-03-03T08:01:18;20.20;;;12.33;;
28551;SDS011;15752;49.560;8.708;2023-03-03T08:03:39;19.70;;;12.23;;
28551;SDS011;15752;49.560;8.708;2023-03-03T08:06:23;18.60;;;12.17;;
28551;SDS011;15752;49.560;8.708;2023-03-03T08:11:58;18.47;;;12.47;;
28551;SDS011;15752;49.560;8.708;2023-03-03T08:14:46;22.03;;;13.27;;
28551;SDS011;15752;49.560;8.708;2023-03-03T08:17:18;20.23;;;13.23;;
28551;SDS011;15752;49.560;8.708;2023-03-03T08:19:51;22.93;;;15.20;;
28551;SDS011;15752;49.560;8.708;2023-03-03T08:22:24;24.97;;;15.83;;
28551;SDS011;15752;49.560;8.708;2023-03-03T08:24:58;19.30;;;11.97;;
28551;SDS011;15752;49.560;8.708;2023-03-03T08:27:26;21.57;;;14.37;;
28551;SDS011;15752;49.560;8.708;2023-03-03T08:29:55;21.60;;;15.03;;
28551;SDS011;15752;49.560;8.708;2023-03-03T08:32:23;23.57;;;15.07;;
28551;SDS011;15752;49.560;8.708;2023-03-03T08:34:53;24.60;;;15.43;;
28551;SDS011;15752;49.560;8.708;2023-03-03T08:37:21;22.60;;;13.97;;
28551;SDS011;15752;49.560;8.708;2023-03-03T08:39:50;21.30;;;14.67;;
28551;SDS011;15752;49.560;8.708;2023-03-03T08:42:18;24.10;;;15.30;;
28551;SDS011;15752;49.560;8.708;2023-03-03T08:44:46;22.97;;;15.27;;
28551;SDS011;15752;49.560;8.708;2023-03-03T08:47:15;26.33;;;15.67;;
28551;SDS011;15752;49.560;8.708;2023-03-03T08:49:43;24.63;;;16.23;;
28551;SDS011;15752;49.560;8.708;2023-03-03T08:52:13;24.53;;;15.03;;
28551;SDS011;15752;49.560;8.708;2023-03-03T08:54:42;24.57;;;14.60;;
28551;SDS011;15752;49.560;8.708;2023-03-03T08:57:10;22.73;;;14.63;;
28551;SDS011;15752;49.560;8.708;2023-03-03T08:59:39;24.80;;;15.67;;
28551;SDS011;15752;49.560;8.708;2023-03-03T09:02:07;22.73;;;15.13;;
28551;SDS011;15752;49.560;8.708;2023-03-03T09:04:36;23.70;;;15.73;;
28551;SDS011;15752;49.560;8.708;2023-03-03T09:07:04;23.33;;;16.03;;
28551;SDS011;15752;49.560;8.708;2023-03-03T09:09:34;24.40;;;16.07;;
28551;SDS011;15752;49.560;8.708;2023-03-03T09:12:08;25.23;;;16.77;;
28551;SDS011;15752;49.560;8.708;2023-03-03T09:14:43;22.90;;;14.63;;
28551;SDS011;15752;49.560;8.708;2023-03-03T09:17:18;25.37;;;16.57;;
28551;SDS011;15752;49.560;8.708;2023-03-03T09:19:53;24.77;;;16.73;;
28551;SDS011;15752;49.560;8.708;2023-03-03T09:22:25;24.37;;;16.30;;
28551;SDS011;15752;49.560;8.708;2023-03-03T09:24:57;28.17;;;18.13;;
28551;SDS011;15752;49.560;8.708;2023-03-03T09:27:28;29.73;;;18.27;;
28551;SDS011;15752;49.560;8.708;2023-03-03T09:30:02;30.07;;;18.80;;
28551;SDS011;15752;49.560;8.708;2023-03-03T09:32:55;31.40;;;19.40;;
28551;SDS011;15752;49.560;8.708;2023-03-03T09:35:32;30.27;;;19.40;;
28551;SDS011;15752;49.560;8.708;2023-03-03T09:38:09;31.00;;;19.53;;
28551;SDS011;15752;49.560;8.708;2023-03-03T09:40:59;28.47;;;18.13;;
28551;SDS011;15752;49.560;8.708;2023-03-03T09:43:45;29.07;;;18.53;;
28551;SDS011;15752;49.560;8.708;2023-03-03T09:46:29;29.83;;;19.63;;
28551;SDS011;15752;49.560;8.708;2023-03-03T09:49:09;33.20;;;20.27;;
28551;SDS011;15752;49.560;8.708;2023-03-03T09:51:50;32.83;;;20.00;;
28551;SDS011;15752;49.560;8.708;2023-03-03T09:54:42;31.83;;;20.33;;
28551;SDS011;15752;49.560;8.708;2023-03-03T09:57:38;28.90;;;18.47;;
28551;SDS011;15752;49.560;8.708;2023-03-03T10:00:39;28.00;;;17.80;;
28551;SDS011;15752;49.560;8.708;2023-03-03T10:03:39;30.53;;;20.37;;
28551;SDS011;15752;49.560;8.708;2023-03-03T10:06:21;35.07;;;19.93;;
28551;SDS011;15752;49.560;8.708;2023-03-03T10:08:57;26.43;;;17.87;;
28551;SDS011;15752;49.560;8.708;2023-03-03T10:11:47;32.87;;;20.20;;
28551;SDS011;15752;49.560;8.708;2023-03-03T10:14:32;32.33;;;18.97;;
28551;SDS011;15752;49.560;8.708;2023-03-03T10:17:41;27.53;;;17.97;;
28551;SDS011;15752;49.560;8.708;2023-03-03T10:20:30;27.60;;;18.57;;
28551;SDS011;15752;49.560;8.708;2023-03-03T10:23:20;29.90;;;18.73;;
28551;SDS011;15752;49.560;8.708;2023-03-03T10:25:52;28.90;;;18.50;;
28551;SDS011;15752;49.560;8.708;2023-03-03T10:28:45;30.33;;;17.87;;
28551;SDS011;15752;49.560;8.708;2023-03-03T10:34:48;30.23;;;19.37;;
28551;SDS011;15752;49.560;8.708;2023-03-03T10:37:32;31.83;;;19.13;;
28551;SDS011;15752;49.560;8.708;2023-03-03T10:40:11;34.80;;;19.47;;
28551;SDS011;15752;49.560;8.708;2023-03-03T10:42:58;28.17;;;18.80;;
28551;SDS011;15752;49.560;8.708;2023-03-03T10:46:04;30.63;;;19.13;;
28551;SDS011;15752;49.560;8.708;2023-03-03T10:52:07;27.47;;;19.67;;
28551;SDS011;15752;49.560;8.708;2023-03-03T10:54:58;35.33;;;19.90;;
28551;SDS011;15752;49.560;8.708;2023-03-03T10:57:43;33.03;;;19.73;;
28551;SDS011;15752;49.560;8.708;2023-03-03T11:00:25;33.63;;;21.33;;
28551;SDS011;15752;49.560;8.708;2023-03-03T11:03:06;30.23;;;20.47;;
28551;SDS011;15752;49.560;8.708;2023-03-03T11:06:05;34.03;;;20.93;;
28551;SDS011;15752;49.560;8.708;2023-03-03T11:08:42;30.53;;;19.50;;
28551;SDS011;15752;49.560;8.708;2023-03-03T11:11:17;34.30;;;19.93;;
28551;SDS011;15752;49.560;8.708;2023-03-03T11:13:55;29.57;;;19.50;;
28551;SDS011;15752;49.560;8.708;2023-03-03T11:16:32;30.30;;;20.57;;
28551;SDS011;15752;49.560;8.708;2023-03-03T11:19:21;29.13;;;19.93;;
28551;SDS011;15752;49.560;8.708;2023-03-03T11:22:09;30.07;;;19.97;;
28551;SDS011;15752;49.560;8.708;2023-03-03T11:25:00;29.23;;;19.50;;
28551;SDS011;15752;49.560;8.708;2023-03-03T11:27:51;33.57;;;21.63;;
28551;SDS011;15752;49.560;8.708;2023-03-03T11:30:33;31.97;;;21.50;;
28551;SDS011;15752;49.560;8.708;2023-03-03T11:33:14;27.63;;;18.43;;
28551;SDS011;15752;49.560;8.708;2023-03-03T11:35:48;28.43;;;18.93;;
28551;SDS011;15752;49.560;8.708;2023-03-03T11:38:35;31.77;;;20.40;;
28551;SDS011;15752;49.560;8.708;2023-03-03T11:41:16;28.23;;;18.83;;
28551;SDS011;15752;49.560;8.708;2023-03-03T11:43:58;30.47;;;19.57;;
28551;SDS011;15752;49.560;8.708;2023-03-03T11:46:38;31.13;;;20.63;;
28551;SDS011;15752;49.560;8.708;2023-03-03T11:49:13;30.87;;;20.63;;
28551;SDS011;15752;49.560;8.708;2023-03-03T11:51:49;31.17;;;19.60;;
28551;SDS011;15752;49.560;8.708;2023-03-03T11:54:33;32.50;;;21.13;;
28551;SDS011;15752;49.560;8.708;2023-03-03T11:57:14;31.40;;;20.63;;
28551;SDS011;15752;49.560;8.708;2023-03-03T11:59:55;31.07;;;20.47;;
28551;SDS011;15752;49.560;8.708;2023-03-03T12:05:42;31.47;;;20.27;;
28551;SDS011;15752;49.560;8.708;2023-03-03T12:08:22;30.47;;;19.73;;
28551;SDS011;15752;49.560;8.708;2023-03-03T12:11:23;30.67;;;20.33;;
28551;SDS011;15752;49.560;8.708;2023-03-03T12:13:56;29.03;;;19.30;;
28551;SDS011;15752;49.560;8.708;2023-03-03T12:16:37;31.37;;;20.87;;
28551;SDS011;15752;49.560;8.708;2023-03-03T12:22:25;27.30;;;18.70;;
28551;SDS011;15752;49.560;8.708;2023-03-03T12:28:05;26.53;;;17.93;;
28551;SDS011;15752;49.560;8.708;2023-03-03T12:33:52;33.60;;;19.47;;
28551;SDS011;15752;49.560;8.708;2023-03-03T12:36:29;31.10;;;19.73;;
28551;SDS011;15752;49.560;8.708;2023-03-03T12:39:23;30.50;;;19.57;;
28551;SDS011;15752;49.560;8.708;2023-03-03T12:42:05;28.57;;;18.20;;
28551;SDS011;15752;49.560;8.708;2023-03-03T12:44:46;29.10;;;19.00;;
28551;SDS011;15752;49.560;8.708;2023-03-03T12:47:23;30.97;;;19.67;;
28551;SDS011;15752;49.560;8.708;2023-03-03T12:50:00;28.43;;;18.93;;
28551;SDS011;15752;49.560;8.708;2023-03-03T12:52:48;30.20;;;19.53;;
28551;SDS011;15752;49.560;8.708;2023-03-03T12:55:28;30.80;;;18.70;;
28551;SDS011;15752;49.560;8.708;2023-03-03T12:58:10;24.73;;;17.37;;
28551;SDS011;15752;49.560;8.708;2023-03-03T13:00:51;26.97;;;18.03;;
28551;SDS011;15752;49.560;8.708;2023-03-03T13:03:31;28.47;;;19.33;;
28551;SDS011;15752;49.560;8.708;2023-03-03T13:06:22;27.87;;;19.47;;
28551;SDS011;15752;49.560;8.708;2023-03-03T13:09:01;26.63;;;17.30;;
28551;SDS011;15752;49.560;8.708;2023-03-03T13:11:51;29.13;;;19.13;;
28551;SDS011;15752;49.560;8.708;2023-03-03T13:14:34;27.37;;;18.03;;
28551;SDS011;15752;49.560;8.708;2023-03-03T13:17:13;28.60;;;18.30;;
28551;SDS011;15752;49.560;8.708;2023-03-03T13:19:48;27.97;;;18.90;;
28551;SDS011;15752;49.560;8.708;2023-03-03T13:22:28;29.20;;;19.03;;
28551;SDS011;15752;49.560;8.708;2023-03-03T13:25:06;28.83;;;18.33;;
28551;SDS011;15752;49.560;8.708;2023-03-03T13:27:59;26.97;;;18.60;;
28551;SDS011;15752;49.560;8.708;2023-03-03T13:30:34;25.40;;;17.73;;
28551;SDS011;15752;49.560;8.708;2023-03-03T13:33:09;24.80;;;17.47;;
28551;SDS011;15752;49.560;8.708;2023-03-03T13:35:43;29.07;;;18.90;;
28551;SDS011;15752;49.560;8.708;2023-03-03T13:38:17;26.03;;;18.50;;
28551;SDS011;15752;49.560;8.708;2023-03-03T13:40:53;29.07;;;18.07;;
28551;SDS011;15752;49.560;8.708;2023-03-03T13:43:29;27.27;;;17.83;;
28551;SDS011;15752;49.560;8.708;2023-03-03T13:46:09;29.00;;;19.03;;
28551;SDS011;15752;49.560;8.708;2023-03-03T13:48:54;26.77;;;17.50;;
28551;SDS011;15752;49.560;8.708;2023-03-03T13:51:48;27.87;;;18.40;;
28551;SDS011;15752;49.560;8.708;2023-03-03T13:54:34;27.40;;;17.47;;
28551;SDS011;15752;49.560;8.708;2023-03-03T13:57:39;26.70;;;17.10;;
28551;SDS011;15752;49.560;8.708;2023-03-03T14:00:24;25.60;;;16.20;;
28551;SDS011;15752;49.560;8.708;2023-03-03T14:03:18;25.30;;;17.77;;
28551;SDS011;15752;49.560;8.708;2023-03-03T14:06:17;26.17;;;18.00;;
28551;SDS011;15752;49.560;8.708;2023-03-03T14:08:52;27.83;;;18.13;;
28551;SDS011;15752;49.560;8.708;2023-03-03T14:11:37;25.73;;;17.20;;
28551;SDS011;15752;49.560;8.708;2023-03-03T14:14:17;22.97;;;15.73;;
28551;SDS011;15752;49.560;8.708;2023-03-03T14:17:01;25.63;;;16.70;;
28551;SDS011;15752;49.560;8.708;2023-03-03T14:19:33;24.20;;;16.00;;
28551;SDS011;15752;49.560;8.708;2023-03-03T14:22:14;27.60;;;17.97;;
28551;SDS011;15752;49.560;8.708;2023-03-03T14:24:53;23.87;;;16.87;;
28551;SDS011;15752;49.560;8.708;2023-03-03T14:27:32;26.57;;;16.93;;
28551;SDS011;15752;49.560;8.708;2023-03-03T14:32:58;25.87;;;15.53;;
28551;SDS011;15752;49.560;8.708;2023-03-03T14:35:33;27.03;;;17.67;;
28551;SDS011;15752;49.560;8.708;2023-03-03T14:38:08;24.80;;;15.73;;
28551;SDS011;15752;49.560;8.708;2023-03-03T14:40:41;22.80;;;15.57;;
28551;SDS011;15752;49.560;8.708;2023-03-03T14:43:22;25.97;;;16.73;;
28551;SDS011;15752;49.560;8.708;2023-03-03T14:45:53;25.03;;;16.63;;
28551;SDS011;15752;49.560;8.708;2023-03-03T14:48:24;22.33;;;15.93;;
28551;SDS011;15752;49.560;8.708;2023-03-03T14:50:59;24.93;;;16.33;;
28551;SDS011;15752;49.560;8.708;2023-03-03T14:53:51;24.13;;;16.93;;
28551;SDS011;15752;49.560;8.708;2023-03-03T14:56:22;25.47;;;16.67;;
28551;SDS011;15752;49.560;8.708;2023-03-03T14:58:52;25.20;;;15.70;;
28551;SDS011;15752;49.560;8.708;2023-03-03T15:01:40;23.70;;;15.53;;
28551;SDS011;15752;49.560;8.708;2023-03-03T15:04:15;23.30;;;16.13;;
28551;SDS011;15752;49.560;8.708;2023-03-03T15:06:52;22.30;;;15.83;;
28551;SDS011;15752;49.560;8.708;2023-03-03T15:09:31;22.73;;;15.63;;
28551;SDS011;15752;49.560;8.708;2023-03-03T15:12:02;24.73;;;14.67;;
28551;SDS011;15752;49.560;8.708;2023-03-03T15:14:48;25.77;;;16.53;;
28551;SDS011;15752;49.560;8.708;2023-03-03T15:17:26;22.87;;;15.50;;
28551;SDS011;15752;49.560;8.708;2023-03-03T15:23:18;24.70;;;16.00;;
28551;SDS011;15752;49.560;8.708;2023-03-03T15:26:10;20.33;;;14.90;;
28551;SDS011;15752;49.560;8.708;2023-03-03T15:28:52;23.27;;;15.03;;
28551;SDS011;15752;49.560;8.708;2023-03-03T15:31:34;22.43;;;14.73;;
28551;SDS011;15752;49.560;8.708;2023-03-03T15:34:20;22.03;;;14.47;;
28551;SDS011;15752;49.560;8.708;2023-03-03T15:37:03;20.57;;;13.67;;
28551;SDS011;15752;49.560;8.708;2023-03-03T15:40:02;22.77;;;14.93;;
28551;SDS011;15752;49.560;8.708;2023-03-03T15:42:47;22.37;;;15.10;;